Time;durP1;ratioP1;P1;durP2;ratioP2;P2;SDS_P1;SDS_P2;PMS_P1;PMS_P2;Temp;Humidity;BMP_temperature;BMP_pressure;BME280_temperature;BME280_humidity;BME280_pressure;Samples;Min_cycle;Max_cycle;Signal;HPM_P1;HPM_P2
2023/05/09 00:00:16;;;;;;;6.50;4.20;;;9.70;99.90;;;;;;5038626;28;20435;-69
2023/05/09 00:02:44;;;;;;;6.03;3.93;;;9.60;99.90;;;;;;5035231;28;20784;-68
2023/05/09 00:05:10;;;;;;;4.63;3.43;;;9.60;99.90;;;;;;5045271;28;20164;-68
2023/05/09 00:07:37;;;;;;;8.20;4.00;;;9.60;99.90;;;;;;5046963;28;20458;-69
2023/05/09 00:10:03;;;;;;;4.60;4.20;;;9.50;99.90;;;;;;5046707;28;20442;-69
2023/05/09 00:12:29;;;;;;;6.20;4.30;;;9.50;99.90;;;;;;5051654;28;20402;-68
2023/05/09 00:14:55;;;;;;;4.07;3.63;;;9.50;99.90;;;;;;5049360;28;20413;-69
2023/05/09 00:17:25;;;;;;;5.37;4.03;;;9.50;99.90;;;;;;5041732;28;20493;-69
2023/05/09 00:19:51;;;;;;;5.63;3.87;;;9.50;99.90;;;;;;5046175;28;20434;-68
2023/05/09 00:22:20;;;;;;;4.07;3.67;;;9.50;99.90;;;;;;5049882;28;20437;-68
2023/05/09 00:24:46;;;;;;;4.20;3.80;;;9.50;99.90;;;;;;5047138;28;20464;-69
2023/05/09 00:27:12;;;;;;;4.73;3.60;;;9.50;99.90;;;;;;5046091;28;20956;-67
2023/05/09 00:29:37;;;;;;;4.67;3.90;;;9.60;99.90;;;;;;5049844;28;20427;-68
2023/05/09 00:32:03;;;;;;;4.83;3.57;;;9.60;99.90;;;;;;5045131;28;20233;-68
2023/05/09 00:34:28;;;;;;;4.70;4.13;;;9.50;99.90;;;;;;5046028;28;20231;-69
2023/05/09 00:36:54;;;;;;;3.90;3.40;;;9.50;99.90;;;;;;5040716;28;20178;-69
2023/05/09 00:39:20;;;;;;;4.03;3.40;;;9.50;99.90;;;;;;5041307;28;20181;-69
2023/05/09 00:41:45;;;;;;;7.33;3.53;;;9.40;99.90;;;;;;5039732;28;20171;-69
2023/05/09 00:44:11;;;;;;;4.13;3.73;;;9.50;99.90;;;;;;5043109;28;20179;-70
2023/05/09 00:46:37;;;;;;;4.30;3.40;;;9.50;99.90;;;;;;5045879;28;20243;-68
2023/05/09 00:49:03;;;;;;;4.10;3.73;;;9.40;99.90;;;;;;5042402;28;20270;-68
2023/05/09 00:51:31;;;;;;;4.97;3.30;;;9.40;99.90;;;;;;5042566;28;20541;-70
2023/05/09 00:53:57;;;;;;;4.00;3.33;;;9.40;99.90;;;;;;5034125;28;20901;-67
2023/05/09 00:56:23;;;;;;;4.47;3.70;;;9.30;99.90;;;;;;5042389;28;20433;-68
2023/05/09 00:58:48;;;;;;;4.20;3.60;;;9.40;99.90;;;;;;5038152;28;20183;-70
2023/05/09 01:01:15;;;;;;;6.40;4.43;;;9.40;99.90;;;;;;5043411;28;20275;-67
2023/05/09 01:03:41;;;;;;;4.20;3.17;;;9.40;99.90;;;;;;5044898;28;20551;-69
2023/05/09 01:06:30;;;;;;;5.67;4.80;;;9.30;99.90;;;;;;5043712;28;20467;-68
2023/05/09 01:09:10;;;;;;;3.30;3.00;;;9.30;99.90;;;;;;5045519;28;20414;-68
2023/05/09 01:12:08;;;;;;;3.40;3.10;;;9.30;99.90;;;;;;5037401;28;20861;-69
2023/05/09 01:15:04;;;;;;;3.07;2.77;;;9.40;99.90;;;;;;5022643;28;20453;-68
2023/05/09 01:17:37;;;;;;;9.70;3.63;;;9.30;99.90;;;;;;5034936;28;20421;-69
2023/05/09 01:20:37;;;;;;;4.07;3.17;;;9.30;99.90;;;;;;5036693;28;20488;-71
2023/05/09 01:23:35;;;;;;;3.83;2.97;;;9.30;99.90;;;;;;5032293;28;20408;-69
2023/05/09 01:26:13;;;;;;;3.40;2.97;;;9.40;99.90;;;;;;5031921;28;20458;-69
2023/05/09 01:29:12;;;;;;;4.03;3.73;;;9.40;99.90;;;;;;5037473;28;20858;-69
2023/05/09 01:31:40;;;;;;;5.30;3.27;;;9.40;99.90;;;;;;5032035;28;20477;-68
2023/05/09 01:34:08;;;;;;;2.97;2.73;;;9.30;99.90;;;;;;5043070;28;20410;-68
2023/05/09 01:36:36;;;;;;;3.70;3.20;;;9.30;99.90;;;;;;5040349;28;20418;-68
2023/05/09 01:39:03;;;;;;;4.50;3.10;;;9.40;99.90;;;;;;5035162;28;20826;-67
2023/05/09 01:41:33;;;;;;;3.77;3.40;;;9.40;99.90;;;;;;5040134;28;20406;-68
2023/05/09 01:44:00;;;;;;;4.17;2.80;;;9.40;99.90;;;;;;5041678;28;20412;-68
2023/05/09 01:46:27;;;;;;;3.87;2.77;;;9.40;99.90;;;;;;5043560;28;20565;-66
2023/05/09 01:48:53;;;;;;;3.80;2.90;;;9.40;99.90;;;;;;5040617;28;20426;-68
2023/05/09 01:51:20;;;;;;;4.53;3.33;;;9.40;99.90;;;;;;5034947;28;20510;-68
2023/05/09 01:53:48;;;;;;;4.63;3.60;;;9.40;99.90;;;;;;5044681;28;20442;-69
2023/05/09 01:56:15;;;;;;;2.63;2.43;;;9.40;99.90;;;;;;5042124;28;20477;-69
2023/05/09 01:58:42;;;;;;;3.37;3.07;;;9.40;99.90;;;;;;5046162;28;20425;-68
2023/05/09 02:01:09;;;;;;;5.70;3.00;;;9.40;99.90;;;;;;5041120;28;20525;-68
2023/05/09 02:03:36;;;;;;;3.80;3.37;;;9.40;99.90;;;;;;5044382;28;20411;-68
2023/05/09 02:06:03;;;;;;;3.93;3.03;;;9.40;99.90;;;;;;5039700;28;20457;-68
2023/05/09 02:08:30;;;;;;;3.10;2.80;;;9.50;99.90;;;;;;5044523;28;20993;-67
2023/05/09 02:10:56;;;;;;;4.53;2.80;;;9.50;99.90;;;;;;5045315;28;20469;-68
2023/05/09 02:13:22;;;;;;;3.23;2.87;;;9.50;99.90;;;;;;5041065;28;20451;-68
2023/05/09 02:15:47;;;;;;;4.50;2.60;;;9.50;99.90;;;;;;5041261;28;20182;-68
2023/05/09 02:18:13;;;;;;;3.10;2.80;;;9.50;99.90;;;;;;5041772;28;20168;-68
2023/05/09 02:20:39;;;;;;;3.40;2.43;;;9.50;99.90;;;;;;5039752;28;20260;-69
2023/05/09 02:23:05;;;;;;;2.90;2.70;;;9.50;99.90;;;;;;5033669;28;20264;-68
2023/05/09 02:25:32;;;;;;;3.40;3.00;;;9.40;99.90;;;;;;5040934;28;21315;-69
2023/05/09 02:27:59;;;;;;;4.67;4.10;;;9.40;99.90;;;;;;5040546;28;20543;-68
2023/05/09 02:30:28;;;;;;;4.70;2.73;;;9.40;99.90;;;;;;5042418;28;20451;-68
2023/05/09 02:33:00;;;;;;;4.10;2.80;;;9.40;99.90;;;;;;5043931;28;20423;-68
2023/05/09 02:35:27;;;;;;;2.60;2.30;;;9.40;99.90;;;;;;5041247;28;20411;-68
2023/05/09 02:37:53;;;;;;;3.70;2.80;;;9.40;99.90;;;;;;5039504;28;20514;-68
2023/05/09 02:40:20;;;;;;;2.60;2.40;;;9.40;99.90;;;;;;5041877;28;20426;-68
2023/05/09 02:42:46;;;;;;;3.03;2.63;;;9.40;99.90;;;;;;5039470;28;20768;-68
2023/05/09 02:45:12;;;;;;;2.80;2.30;;;9.40;99.90;;;;;;5034450;28;20411;-69
2023/05/09 02:47:38;;;;;;;2.80;2.47;;;9.40;99.90;;;;;;5044244;28;20670;-70
2023/05/09 02:50:04;;;;;;;2.80;2.60;;;9.30;99.90;;;;;;5038946;28;20198;-69
2023/05/09 02:52:30;;;;;;;2.40;1.93;;;9.40;99.90;;;;;;5030079;28;20463;-68
2023/05/09 02:54:56;;;;;;;2.77;2.57;;;9.30;99.90;;;;;;5033734;28;20430;-69
2023/05/09 02:57:21;;;;;;;2.60;2.40;;;9.30;99.90;;;;;;5044874;28;20649;-69
2023/05/09 02:59:47;;;;;;;3.37;2.20;;;9.30;99.90;;;;;;5034014;28;20665;-69
2023/05/09 03:02:12;;;;;;;3.40;3.10;;;9.30;99.90;;;;;;5046236;28;20185;-69
2023/05/09 03:04:38;;;;;;;3.50;2.70;;;9.30;99.90;;;;;;5041277;28;20177;-69
2023/05/09 03:07:04;;;;;;;3.33;3.03;;;9.30;99.90;;;;;;5047934;28;20283;-69
2023/05/09 03:09:30;;;;;;;2.93;2.50;;;9.20;99.90;;;;;;5034165;28;20677;-69
2023/05/09 03:11:56;;;;;;;4.10;2.57;;;9.30;99.90;;;;;;5038877;28;20435;-69
2023/05/09 03:14:21;;;;;;;5.00;2.83;;;9.20;99.90;;;;;;5037399;28;20660;-69
2023/05/09 03:16:47;;;;;;;2.80;2.50;;;9.20;99.90;;;;;;5039742;28;20175;-68
2023/05/09 03:19:13;;;;;;;3.57;2.60;;;9.30;99.90;;;;;;5047068;28;20747;-68
2023/05/09 03:21:38;;;;;;;3.20;2.70;;;9.20;99.90;;;;;;5039565;28;20217;-69
2023/05/09 03:24:07;;;;;;;7.20;2.83;;;9.20;99.90;;;;;;5039277;28;20190;-69
2023/05/09 03:26:34;;;;;;;6.77;3.10;;;9.20;99.90;;;;;;5033608;28;20690;-69
2023/05/09 03:29:00;;;;;;;2.90;2.57;;;9.20;99.90;;;;;;5037069;28;20433;-68
2023/05/09 03:31:26;;;;;;;3.00;2.27;;;9.20;99.90;;;;;;5046279;28;20440;-68
2023/05/09 03:33:52;;;;;;;2.83;2.63;;;9.20;99.90;;;;;;5039388;28;20424;-68
2023/05/09 03:36:17;;;;;;;3.60;2.70;;;9.10;99.90;;;;;;5047499;28;20177;-69
2023/05/09 03:38:43;;;;;;;5.90;3.37;;;9.10;99.90;;;;;;5038900;28;20180;-69
2023/05/09 03:41:09;;;;;;;4.17;3.27;;;9.10;99.90;;;;;;5039874;28;20195;-68
2023/05/09 03:43:34;;;;;;;3.20;2.90;;;9.10;99.90;;;;;;5046894;28;20215;-67
2023/05/09 03:46:00;;;;;;;3.97;2.70;;;9.10;99.90;;;;;;5039285;28;20484;-68
2023/05/09 03:48:26;;;;;;;2.90;2.67;;;9.00;99.90;;;;;;5046845;28;20195;-69
2023/05/09 03:50:51;;;;;;;3.73;3.00;;;9.10;99.90;;;;;;5039425;28;20190;-69
2023/05/09 03:53:17;;;;;;;3.10;2.80;;;9.10;99.90;;;;;;5041628;28;20174;-68
2023/05/09 03:55:42;;;;;;;3.00;2.70;;;9.10;99.90;;;;;;5043811;28;20168;-67
2023/05/09 03:58:08;;;;;;;2.83;2.53;;;9.10;99.90;;;;;;5039861;28;20211;-69
2023/05/09 04:00:34;;;;;;;3.27;2.30;;;9.10;99.90;;;;;;5038806;28;20199;-70
2023/05/09 04:02:59;;;;;;;2.90;2.70;;;9.00;99.90;;;;;;5039156;28;20176;-68
2023/05/09 04:05:26;;;;;;;3.60;3.20;;;9.10;99.90;;;;;;5042020;28;20176;-68
2023/05/09 04:07:51;;;;;;;5.00;3.20;;;9.00;99.90;;;;;;5038732;28;20249;-68
2023/05/09 04:10:17;;;;;;;3.50;3.07;;;9.00;99.90;;;;;;5040969;28;20501;-69
2023/05/09 04:12:43;;;;;;;4.23;2.60;;;9.00;99.90;;;;;;5044314;28;20173;-68
2023/05/09 04:15:09;;;;;;;2.90;2.70;;;9.00;99.90;;;;;;5039681;28;20208;-69
2023/05/09 04:17:35;;;;;;;3.23;2.93;;;9.00;99.90;;;;;;5046099;28;20180;-67
2023/05/09 04:20:01;;;;;;;4.10;3.60;;;9.10;99.90;;;;;;5038995;28;20437;-68
2023/05/09 04:22:27;;;;;;;3.47;2.80;;;9.10;99.90;;;;;;5040950;28;20639;-69
2023/05/09 04:24:53;;;;;;;4.20;2.97;;;9.10;99.90;;;;;;5041998;28;20421;-69
2023/05/09 04:29:45;;;;;;;5.33;3.23;;;9.20;99.90;;;;;;5075982;22;20224;-69
2023/05/09 04:32:11;;;;;;;10.30;3.20;;;9.20;99.90;;;;;;5058722;28;20876;-69
2023/05/09 04:34:36;;;;;;;3.13;2.87;;;9.20;99.90;;;;;;5061077;28;20162;-69
2023/05/09 04:37:02;;;;;;;3.90;3.50;;;9.20;99.90;;;;;;5054009;28;20310;-70
2023/05/09 04:39:29;;;;;;;4.07;3.63;;;9.30;99.90;;;;;;5057898;28;20229;-69
2023/05/09 04:41:54;;;;;;;4.63;2.87;;;9.30;99.90;;;;;;5058326;28;20584;-69
2023/05/09 04:44:20;;;;;;;4.17;3.10;;;9.40;99.90;;;;;;5065065;28;20508;-69
2023/05/09 04:46:46;;;;;;;4.60;3.73;;;9.40;99.90;;;;;;5057639;28;20203;-70
2023/05/09 04:49:11;;;;;;;4.20;2.83;;;9.50;99.90;;;;;;5058869;28;20533;-70
2023/05/09 04:51:37;;;;;;;5.80;3.37;;;9.50;99.90;;;;;;5066305;28;20163;-70
2023/05/09 04:54:02;;;;;;;4.20;2.73;;;9.60;99.90;;;;;;5061268;28;20564;-70
2023/05/09 04:56:28;;;;;;;4.87;3.53;;;9.70;99.90;;;;;;5063744;28;20176;-69
2023/05/09 04:58:53;;;;;;;3.40;3.10;;;9.80;99.90;;;;;;5059598;28;20213;-69
2023/05/09 05:01:19;;;;;;;6.83;3.40;;;9.80;99.90;;;;;;5068844;28;20177;-68
2023/05/09 05:03:45;;;;;;;5.17;3.37;;;9.90;99.90;;;;;;5058621;28;20265;-68
2023/05/09 05:06:11;;;;;;;4.40;3.00;;;10.10;99.90;;;;;;5061383;28;20687;-69
2023/05/09 05:08:36;;;;;;;5.13;3.47;;;10.20;99.90;;;;;;5066377;28;20195;-68
2023/05/09 05:11:02;;;;;;;3.30;2.97;;;10.70;99.90;;;;;;5074935;28;20270;-71
2023/05/09 05:13:27;;;;;;;5.77;3.50;;;11.30;99.90;;;;;;5064775;28;20338;-69
2023/05/09 05:15:53;;;;;;;5.30;2.70;;;11.60;99.90;;;;;;5066278;28;20191;-70
2023/05/09 05:18:19;;;;;;;3.20;2.80;;;11.80;99.90;;;;;;5064368;28;20250;-69
2023/05/09 05:20:44;;;;;;;4.10;2.90;;;12.40;99.90;;;;;;5060665;28;20223;-70
2023/05/09 05:23:10;;;;;;;2.90;2.70;;;12.40;99.90;;;;;;5061426;28;20255;-71
2023/05/09 05:25:36;;;;;;;4.10;3.47;;;13.00;99.90;;;;;;5066481;28;20240;-69
2023/05/09 05:28:02;;;;;;;4.53;3.27;;;12.70;99.60;;;;;;5060957;28;20454;-69
2023/05/09 05:30:27;;;;;;;7.30;4.87;;;12.90;99.80;;;;;;5065949;28;20174;-71
2023/05/09 05:32:53;;;;;;;3.70;3.00;;;13.70;99.10;;;;;;5060686;28;20174;-70
2023/05/09 05:35:22;;;;;;;3.23;2.93;;;14.20;98.60;;;;;;5062423;28;20175;-69
2023/05/09 05:37:47;;;;;;;5.60;4.73;;;14.80;97.20;;;;;;5057276;28;20212;-67
2023/05/09 05:40:13;;;;;;;5.00;2.77;;;15.10;96.10;;;;;;5061615;28;20550;-67
2023/05/09 05:42:39;;;;;;;3.17;2.87;;;15.00;94.70;;;;;;5066704;28;20215;-69
2023/05/09 05:45:05;;;;;;;7.80;2.83;;;14.70;94.70;;;;;;5060045;28;20175;-66
2023/05/09 05:47:32;;;;;;;4.60;3.20;;;14.50;95.90;;;;;;5062481;28;20281;-69
2023/05/09 05:49:58;;;;;;;3.53;2.90;;;14.90;94.70;;;;;;5062168;28;20407;-69
2023/05/09 05:52:25;;;;;;;3.03;2.77;;;15.10;94.10;;;;;;5057031;28;20488;-69
2023/05/09 05:54:51;;;;;;;5.27;2.93;;;15.00;93.60;;;;;;5065219;28;20523;-69
2023/05/09 05:57:16;;;;;;;2.93;2.63;;;14.90;93.40;;;;;;5055869;28;20501;-69
2023/05/09 05:59:42;;;;;;;6.73;3.53;;;15.00;93.80;;;;;;5061091;28;20794;-69
2023/05/09 06:02:07;;;;;;;2.83;2.40;;;15.20;93.10;;;;;;5060804;28;20166;-68
2023/05/09 06:04:33;;;;;;;5.27;2.50;;;15.20;92.90;;;;;;5061576;28;20251;-68
2023/05/09 06:06:58;;;;;;;4.50;2.80;;;15.20;92.40;;;;;;5062327;28;20241;-69
2023/05/09 06:09:24;;;;;;;4.60;2.53;;;15.70;93.60;;;;;;5062046;28;20198;-69
2023/05/09 06:11:50;;;;;;;3.30;2.50;;;15.10;92.30;;;;;;5048573;28;20551;-69
2023/05/09 06:14:15;;;;;;;3.50;2.60;;;15.40;92.10;;;;;;5060766;28;20411;-70
2023/05/09 06:16:41;;;;;;;3.37;2.53;;;15.80;91.70;;;;;;5062636;28;20552;-68
2023/05/09 06:19:07;;;;;;;2.63;2.30;;;16.10;90.30;;;;;;5060024;28;20193;-69
2023/05/09 06:21:33;;;;;;;6.23;2.70;;;16.60;90.00;;;;;;5062500;28;20185;-68
2023/05/09 06:23:58;;;;;;;2.30;2.10;;;17.20;89.30;;;;;;5061512;28;20639;-68
2023/05/09 06:26:25;;;;;;;8.30;2.67;;;16.40;88.90;;;;;;5061338;28;20450;-69
2023/05/09 06:28:50;;;;;;;3.63;3.23;;;17.00;86.50;;;;;;5061572;28;20231;-68
2023/05/09 06:31:16;;;;;;;2.60;2.40;;;17.00;86.50;;;;;;5060731;28;20413;-69
2023/05/09 06:33:41;;;;;;;2.33;1.93;;;17.70;85.60;;;;;;5062192;28;20173;-69
2023/05/09 06:36:07;;;;;;;3.80;2.37;;;18.00;83.50;;;;;;5059712;28;20172;-68
2023/05/09 06:38:33;;;;;;;5.07;2.30;;;17.80;84.00;;;;;;5061538;28;20200;-67
2023/05/09 06:40:59;;;;;;;2.50;2.30;;;18.20;83.20;;;;;;5062732;28;20180;-68
2023/05/09 06:43:25;;;;;;;5.20;2.53;;;18.20;82.10;;;;;;5055748;28;20564;-69
2023/05/09 06:45:51;;;;;;;3.57;2.60;;;17.90;81.80;;;;;;5059217;28;20254;-69
2023/05/09 06:48:16;;;;;;;3.30;2.60;;;17.90;82.40;;;;;;5058041;28;20500;-68
2023/05/09 06:50:42;;;;;;;2.60;2.40;;;18.90;81.40;;;;;;5056806;28;20411;-69
2023/05/09 06:53:08;;;;;;;3.57;3.27;;;19.00;80.60;;;;;;5057065;28;20264;-68
2023/05/09 06:55:33;;;;;;;3.23;2.33;;;18.60;79.70;;;;;;5058162;28;20591;-68
2023/05/09 06:57:59;;;;;;;3.83;3.53;;;17.70;80.40;;;;;;5059886;28;20367;-70
2023/05/09 07:00:24;;;;;;;4.60;3.00;;;17.70;81.10;;;;;;5061717;28;20189;-69
2023/05/09 07:02:50;;;;;;;6.63;2.80;;;18.20;81.00;;;;;;5061948;28;20254;-68
2023/05/09 07:05:16;;;;;;;3.70;2.77;;;18.30;80.00;;;;;;5059475;28;20165;-69
2023/05/09 07:07:41;;;;;;;3.00;2.70;;;17.60;80.40;;;;;;5061841;28;20206;-69
2023/05/09 07:10:08;;;;;;;4.37;2.73;;;17.90;80.70;;;;;;5052278;28;20416;-70
2023/05/09 07:12:34;;;;;;;3.93;2.50;;;17.60;80.40;;;;;;5061580;28;20181;-68
2023/05/09 07:14:59;;;;;;;3.27;3.03;;;17.80;80.70;;;;;;5061893;28;20520;-70
2023/05/09 07:17:25;;;;;;;3.70;2.53;;;18.10;79.40;;;;;;5062493;28;20182;-68
2023/05/09 07:19:51;;;;;;;2.53;2.33;;;18.00;78.80;;;;;;5061797;28;20538;-70
2023/05/09 07:22:16;;;;;;;3.53;2.90;;;18.00;78.70;;;;;;5059591;28;20222;-70
2023/05/09 07:24:43;;;;;;;6.20;2.80;;;18.10;78.90;;;;;;5055395;28;20269;-68
2023/05/09 07:27:09;;;;;;;3.20;2.90;;;18.20;78.10;;;;;;5058821;28;20200;-69
2023/05/09 07:29:34;;;;;;;2.73;2.53;;;17.70;78.50;;;;;;5061561;28;20468;-68
2023/05/09 07:32:00;;;;;;;3.33;2.80;;;17.50;78.60;;;;;;5061543;28;20172;-69
2023/05/09 07:34:26;;;;;;;2.97;2.60;;;18.10;76.80;;;;;;5060534;28;20259;-69
2023/05/09 07:36:51;;;;;;;3.30;2.60;;;17.60;75.90;;;;;;5061599;28;20179;-69
2023/05/09 07:39:17;;;;;;;3.40;3.07;;;17.70;76.30;;;;;;5057537;28;20211;-69
2023/05/09 07:41:42;;;;;;;2.67;2.47;;;17.70;76.60;;;;;;5059006;28;20180;-67
2023/05/09 07:44:08;;;;;;;3.33;2.70;;;17.40;75.20;;;;;;5060752;28;20256;-69
2023/05/09 07:46:36;;;;;;;3.27;2.70;;;17.50;75.30;;;;;;5057997;28;20197;-69
2023/05/09 07:49:02;;;;;;;3.63;3.30;;;18.00;75.30;;;;;;5054053;28;20196;-69
2023/05/09 07:51:28;;;;;;;6.20;4.40;;;18.70;72.60;;;;;;5061700;28;20435;-69
2023/05/09 07:53:55;;;;;;;3.20;2.70;;;18.60;72.40;;;;;;5063383;28;20945;-69
2023/05/09 07:56:21;;;;;;;3.07;2.23;;;18.80;73.10;;;;;;5058777;28;20212;-68
2023/05/09 07:58:47;;;;;;;3.13;2.80;;;19.00;71.10;;;;;;5062642;28;20569;-69
2023/05/09 08:01:13;;;;;;;4.47;2.87;;;18.60;70.90;;;;;;5059894;28;20400;-69
2023/05/09 08:03:39;;;;;;;3.17;2.20;;;18.00;73.20;;;;;;5057591;28;20902;-68
2023/05/09 08:06:04;;;;;;;2.17;1.90;;;18.90;70.20;;;;;;5063463;28;20212;-67
2023/05/09 08:08:30;;;;;;;2.70;2.50;;;18.80;69.40;;;;;;5055891;28;20221;-68
2023/05/09 08:10:56;;;;;;;2.23;2.07;;;19.10;69.10;;;;;;5059969;28;20523;-69
2023/05/09 08:13:21;;;;;;;3.43;2.17;;;19.30;68.00;;;;;;5059327;28;20202;-71
2023/05/09 08:15:48;;;;;;;2.50;2.30;;;19.20;68.90;;;;;;5063449;28;20174;-68
2023/05/09 08:18:13;;;;;;;4.87;2.40;;;19.00;69.70;;;;;;5059244;28;20744;-68
2023/05/09 08:20:39;;;;;;;4.67;2.40;;;19.90;70.20;;;;;;5057102;28;20451;-69
2023/05/09 08:23:05;;;;;;;2.70;2.50;;;19.10;68.90;;;;;;5063363;28;20196;-68
2023/05/09 08:25:31;;;;;;;5.67;2.40;;;20.00;66.80;;;;;;5057786;28;20436;-68
2023/05/09 08:27:57;;;;;;;4.00;2.20;;;20.00;66.20;;;;;;5066550;28;20490;-68
2023/05/09 08:30:22;;;;;;;3.00;2.77;;;19.90;66.30;;;;;;5061889;28;20186;-68
2023/05/09 08:32:48;;;;;;;3.93;2.40;;;19.90;66.50;;;;;;5066397;28;20177;-67
2023/05/09 08:35:14;;;;;;;2.97;2.70;;;20.90;65.90;;;;;;5063075;28;20187;-68
2023/05/09 08:37:39;;;;;;;2.10;1.90;;;20.60;63.10;;;;;;5060720;28;20181;-68
2023/05/09 08:40:09;;;;;;;2.47;2.27;;;21.10;61.60;;;;;;5059706;28;20253;-68
2023/05/09 08:42:36;;;;;;;2.77;2.50;;;20.40;61.40;;;;;;5067848;28;20534;-68
2023/05/09 08:45:08;;;;;;;3.03;2.50;;;19.70;62.70;;;;;;5060558;28;20501;-70
2023/05/09 08:47:36;;;;;;;2.50;2.30;;;20.00;62.50;;;;;;5049252;28;20516;-69
2023/05/09 08:50:03;;;;;;;4.87;2.40;;;19.20;63.80;;;;;;5062742;28;20813;-71
2023/05/09 08:52:32;;;;;;;3.47;2.40;;;19.40;64.20;;;;;;5056191;28;20845;-70
2023/05/09 08:55:03;;;;;;;3.47;2.57;;;19.70;63.60;;;;;;5063711;28;20857;-69
2023/05/09 08:57:32;;;;;;;3.17;2.60;;;20.10;64.20;;;;;;5060946;28;20436;-68
2023/05/09 08:59:58;;;;;;;4.17;2.30;;;20.70;62.90;;;;;;5065023;28;20886;-69
2023/05/09 09:02:24;;;;;;;5.20;2.80;;;21.20;61.20;;;;;;5063259;28;20495;-69
2023/05/09 09:04:50;;;;;;;7.10;3.77;;;20.70;62.00;;;;;;5063916;28;20497;-68
2023/05/09 09:07:16;;;;;;;3.13;2.23;;;20.30;63.40;;;;;;5061594;28;20195;-67
2023/05/09 09:09:47;;;;;;;2.77;2.53;;;20.20;61.30;;;;;;5062513;28;20443;-69
2023/05/09 09:12:15;;;;;;;4.40;2.70;;;20.30;62.30;;;;;;5061083;28;20982;-68
2023/05/09 09:14:47;;;;;;;4.67;2.33;;;20.20;61.90;;;;;;5062421;28;20768;-67
2023/05/09 09:17:17;;;;;;;2.40;2.20;;;20.20;62.60;;;;;;5060286;28;20420;-68
2023/05/09 09:19:44;;;;;;;4.90;2.23;;;20.90;61.90;;;;;;5059854;28;20509;-69
2023/05/09 09:22:14;;;;;;;3.30;3.00;;;20.90;61.10;;;;;;5061210;28;20416;-67
2023/05/09 09:24:40;;;;;;;3.03;2.40;;;20.50;59.90;;;;;;5062940;28;20408;-67
2023/05/09 09:27:06;;;;;;;2.63;2.43;;;20.30;61.10;;;;;;5061669;28;20923;-67
2023/05/09 09:29:32;;;;;;;4.13;2.80;;;20.90;61.80;;;;;;5063163;28;20548;-68
2023/05/09 09:32:02;;;;;;;5.03;2.77;;;20.90;60.90;;;;;;5054052;28;20185;-68
2023/05/09 09:34:28;;;;;;;3.20;2.40;;;21.30;60.90;;;;;;5054350;28;20507;-69
2023/05/09 09:36:53;;;;;;;3.70;2.93;;;21.20;58.80;;;;;;5063133;28;20986;-70
2023/05/09 09:39:20;;;;;;;2.93;2.30;;;20.40;59.50;;;;;;5060849;28;20200;-69
2023/05/09 09:41:47;;;;;;;4.47;2.40;;;20.00;59.40;;;;;;5065086;28;20209;-68
2023/05/09 09:44:15;;;;;;;4.33;2.03;;;20.20;59.20;;;;;;5061979;28;20846;-67
2023/05/09 09:46:52;;;;;;;3.40;2.53;;;20.20;60.00;;;;;;5059364;28;21012;-68
2023/05/09 09:49:23;;;;;;;2.17;1.97;;;20.50;60.20;;;;;;5065802;28;20427;-69
2023/05/09 09:51:53;;;;;;;6.60;2.27;;;20.30;58.00;;;;;;5053642;28;20440;-68
2023/05/09 09:54:19;;;;;;;3.00;2.37;;;19.70;57.90;;;;;;5057834;28;20444;-67
2023/05/09 09:56:46;;;;;;;2.57;2.30;;;20.00;60.10;;;;;;5062361;28;20513;-69
2023/05/09 09:59:14;;;;;;;2.97;1.97;;;20.10;58.80;;;;;;5067348;28;20210;-69
2023/05/09 10:02:08;;;;;;;2.80;2.60;;;19.50;59.80;;;;;;5059724;28;20418;-69
2023/05/09 10:04:36;;;;;;;2.50;2.30;;;18.50;61.00;;;;;;5047441;28;20787;-68
2023/05/09 10:07:04;;;;;;;2.67;2.47;;;18.40;62.90;;;;;;5064339;28;20453;-67
2023/05/09 10:09:31;;;;;;;2.50;2.30;;;18.20;62.80;;;;;;5055567;28;20931;-68
2023/05/09 10:12:01;;;;;;;4.20;2.70;;;18.20;63.00;;;;;;5060419;28;20513;-69
2023/05/09 10:14:29;;;;;;;3.27;2.73;;;17.90;63.50;;;;;;5064307;28;20393;-67
2023/05/09 10:16:56;;;;;;;2.77;2.50;;;18.20;65.00;;;;;;5063446;28;20427;-68
2023/05/09 10:19:23;;;;;;;3.27;2.40;;;17.90;63.40;;;;;;5062240;28;20441;-72
2023/05/09 10:22:06;;;;;;;3.60;2.50;;;18.10;64.30;;;;;;5055839;28;20431;-70
2023/05/09 10:24:59;;;;;;;3.40;3.03;;;18.30;65.50;;;;;;5059669;28;20465;-70
2023/05/09 10:27:29;;;;;;;3.50;2.17;;;18.30;64.70;;;;;;5057297;28;20991;-64
2023/05/09 10:30:12;;;;;;;3.63;2.60;;;18.10;64.20;;;;;;5059007;28;20935;-65
2023/05/09 10:32:56;;;;;;;2.67;2.20;;;18.20;65.50;;;;;;5066026;28;20459;-71
2023/05/09 10:35:26;;;;;;;2.33;2.13;;;18.00;62.30;;;;;;5059783;28;20409;-67
2023/05/09 10:37:55;;;;;;;2.43;2.00;;;17.80;61.60;;;;;;5062150;28;20442;-68
2023/05/09 10:40:22;;;;;;;3.73;2.60;;;17.90;60.00;;;;;;5060391;28;20423;-68
2023/05/09 10:42:47;;;;;;;2.53;2.10;;;17.60;60.10;;;;;;5053566;28;21417;-68
2023/05/09 10:45:13;;;;;;;7.00;3.93;;;17.60;59.20;;;;;;5067933;28;20563;-68
2023/05/09 10:47:41;;;;;;;2.40;2.00;;;17.80;60.50;;;;;;5050101;28;20217;-69
2023/05/09 10:50:08;;;;;;;2.37;2.10;;;18.00;59.90;;;;;;5053993;28;20524;-67
2023/05/09 10:52:54;;;;;;;3.00;2.17;;;18.20;62.50;;;;;;5052449;28;20775;-69
2023/05/09 10:55:20;;;;;;;6.63;2.90;;;18.40;60.30;;;;;;5054000;28;20436;-67
2023/05/09 10:57:53;;;;;;;5.13;2.53;;;18.50;62.60;;;;;;5057244;28;20448;-68
2023/05/09 11:00:23;;;;;;;3.03;2.73;;;18.30;59.80;;;;;;5052111;28;20173;-67
2023/05/09 11:03:07;;;;;;;3.90;2.63;;;18.50;61.30;;;;;;5052299;28;20888;-67
2023/05/09 11:05:38;;;;;;;3.17;2.00;;;18.70;59.80;;;;;;5040198;28;20807;-67
2023/05/09 11:08:26;;;;;;;2.93;2.63;;;18.70;60.70;;;;;;5048263;28;20456;-68
2023/05/09 11:10:54;;;;;;;3.17;1.83;;;18.80;59.20;;;;;;5053868;28;20757;-67
2023/05/09 11:13:24;;;;;;;4.23;2.30;;;18.70;60.00;;;;;;5051668;28;20423;-67
2023/05/09 11:15:59;;;;;;;4.17;1.90;;;18.50;59.20;;;;;;5056872;28;20776;-68
2023/05/09 11:18:25;;;;;;;2.40;2.20;;;18.50;60.20;;;;;;5052895;28;20467;-67
2023/05/09 11:20:51;;;;;;;5.30;2.27;;;18.60;59.00;;;;;;5047958;28;20463;-66
2023/05/09 11:23:24;;;;;;;3.13;2.20;;;18.60;58.80;;;;;;5052936;28;20424;-67
2023/05/09 11:25:50;;;;;;;3.83;2.50;;;18.80;59.80;;;;;;5053999;28;20182;-68
2023/05/09 11:28:27;;;;;;;3.10;2.20;;;18.90;60.70;;;;;;5058600;28;20458;-68
2023/05/09 11:30:53;;;;;;;5.83;2.87;;;18.80;60.00;;;;;;5045059;28;20543;-68
2023/05/09 11:33:23;;;;;;;3.00;2.70;;;18.80;61.50;;;;;;5051687;28;20410;-69
2023/05/09 11:36:14;;;;;;;2.70;2.50;;;18.90;61.10;;;;;;5052351;28;20456;-68
2023/05/09 11:38:44;;;;;;;3.90;2.50;;;19.20;60.40;;;;;;5049199;28;20452;-65
2023/05/09 11:41:10;;;;;;;3.20;2.60;;;18.80;59.40;;;;;;5053346;28;20508;-68
2023/05/09 11:43:36;;;;;;;2.03;1.93;;;18.40;59.20;;;;;;5059063;28;20844;-67
2023/05/09 11:46:03;;;;;;;2.80;2.30;;;18.40;59.30;;;;;;5057594;28;20264;-68
2023/05/09 11:48:29;;;;;;;3.00;2.60;;;18.70;60.30;;;;;;5053490;28;20605;-68
2023/05/09 11:50:54;;;;;;;2.53;2.33;;;18.50;59.70;;;;;;5048302;28;20413;-66
2023/05/09 11:53:20;;;;;;;3.13;2.20;;;18.50;59.20;;;;;;5050264;28;20175;-68
2023/05/09 11:55:46;;;;;;;2.77;2.57;;;18.40;58.90;;;;;;5048593;28;20178;-67
2023/05/09 11:58:12;;;;;;;6.70;2.73;;;18.30;58.80;;;;;;5051288;28;20660;-75
2023/05/09 12:00:43;;;;;;;3.50;2.47;;;18.20;59.60;;;;;;5062856;28;20465;-69
2023/05/09 12:03:11;;;;;;;2.87;2.30;;;18.30;59.70;;;;;;5055601;28;20428;-72
2023/05/09 12:05:41;;;;;;;4.43;3.00;;;18.30;59.70;;;;;;5062097;28;20490;-70
2023/05/09 12:08:08;;;;;;;2.93;2.73;;;18.30;59.80;;;;;;5050704;28;21069;-72
2023/05/09 12:10:36;;;;;;;3.33;2.57;;;18.40;60.20;;;;;;5060961;28;20415;-72
2023/05/09 12:13:02;;;;;;;3.00;2.43;;;18.30;59.80;;;;;;5058031;28;20420;-68
